sensor_id;sensor_type;location;lat;lon;timestamp;pressure;altitude;pressure_sealevel;temperature;humidity
56811;BME280;42691;47.234;27.494;2023-02-15T00:00:15;100777.72;;;9.62;100.00
56811;BME280;42691;47.234;27.494;2023-02-15T00:02:40;100781.13;;;9.64;100.00
56811;BME280;42691;47.234;27.494;2023-02-15T00:05:06;100773.41;;;9.61;100.00
56811;BME280;42691;47.234;27.494;2023-02-15T00:07:32;100741.03;;;9.42;100.00
56811;BME280;42691;47.234;27.494;2023-02-15T00:09:57;100774.47;;;9.54;100.00
56811;BME280;42691;47.234;27.494;2023-02-15T00:12:23;100776.09;;;9.58;100.00
56811;BME280;42691;47.234;27.494;2023-02-15T00:14:49;100778.72;;;9.56;100.00
56811;BME280;42691;47.234;27.494;2023-02-15T00:17:14;100779.59;;;9.57;100.00
56811;BME280;42691;47.234;27.494;2023-02-15T00:19:40;100765.16;;;9.47;100.00
56811;BME280;42691;47.234;27.494;2023-02-15T00:22:05;100781.50;;;9.50;100.00
56811;BME280;42691;47.234;27.494;2023-02-15T00:24:31;100783.31;;;9.47;100.00
56811;BME280;42691;47.234;27.494;2023-02-15T00:26:57;100785.22;;;9.40;100.00
56811;BME280;42691;47.234;27.494;2023-02-15T00:29:23;100781.81;;;9.38;100.00
56811;BME280;42691;47.234;27.494;2023-02-15T00:31:48;100784.38;;;9.39;100.00
56811;BME280;42691;47.234;27.494;2023-02-15T00:34:22;100780.94;;;9.39;100.00
56811;BME280;42691;47.234;27.494;2023-02-15T00:36:48;100777.53;;;9.37;100.00
56811;BME280;42691;47.234;27.494;2023-02-15T00:39:15;100776.66;;;9.36;100.00
56811;BME280;42691;47.234;27.494;2023-02-15T00:41:41;100778.47;;;9.34;100.00
56811;BME280;42691;47.234;27.494;2023-02-15T00:44:07;100781.13;;;9.31;100.00
56811;BME280;42691;47.234;27.494;2023-02-15T00:46:34;100780.16;;;9.35;100.00
56811;BME280;42691;47.234;27.494;2023-02-15T00:49:00;100783.66;;;9.34;100.00
56811;BME280;42691;47.234;27.494;2023-02-15T00:51:25;100789.81;;;9.29;100.00
56811;BME280;42691;47.234;27.494;2023-02-15T00:53:51;100783.84;;;9.25;100.00
56811;BME280;42691;47.234;27.494;2023-02-15T00:56:16;100785.72;;;9.20;100.00
56811;BME280;42691;47.234;27.494;2023-02-15T00:58:42;100783.13;;;9.20;100.00
56811;BME280;42691;47.234;27.494;2023-02-15T01:01:10;100772.81;;;9.17;100.00
56811;BME280;42691;47.234;27.494;2023-02-15T01:03:36;100756.66;;;9.06;100.00
56811;BME280;42691;47.234;27.494;2023-02-15T01:06:03;100773.72;;;9.16;100.00
56811;BME280;42691;47.234;27.494;2023-02-15T01:08:29;100791.06;;;9.14;100.00
56811;BME280;42691;47.234;27.494;2023-02-15T01:10:54;100774.63;;;9.14;100.00
56811;BME280;42691;47.234;27.494;2023-02-15T01:13:20;100778.97;;;9.13;100.00
56811;BME280;42691;47.234;27.494;2023-02-15T01:15:45;100779.06;;;9.10;100.00
56811;BME280;42691;47.234;27.494;2023-02-15T01:18:11;100779.94;;;9.09;100.00
56811;BME280;42691;47.234;27.494;2023-02-15T01:20:38;100759.56;;;8.94;100.00
56811;BME280;42691;47.234;27.494;2023-02-15T01:23:06;100775.75;;;9.03;100.00
56811;BME280;42691;47.234;27.494;2023-02-15T01:25:33;100782.69;;;9.03;100.00
56811;BME280;42691;47.234;27.494;2023-02-15T01:27:59;100784.56;;;8.98;100.00
56811;BME280;42691;47.234;27.494;2023-02-15T01:30:25;100775.94;;;8.96;100.00
56811;BME280;42691;47.234;27.494;2023-02-15T01:32:50;100776.72;;;8.99;100.00
56811;BME280;42691;47.234;27.494;2023-02-15T01:35:16;100775.09;;;8.95;100.00
56811;BME280;42691;47.234;27.494;2023-02-15T01:37:41;100769.09;;;8.93;100.00
56811;BME280;42691;47.234;27.494;2023-02-15T01:40:11;100780.31;;;8.94;100.00
56811;BME280;42691;47.234;27.494;2023-02-15T01:42:37;100779.56;;;8.89;100.00
56811;BME280;42691;47.234;27.494;2023-02-15T01:45:05;100780.41;;;8.89;100.00
56811;BME280;42691;47.234;27.494;2023-02-15T01:47:47;100778.69;;;8.88;100.00
56811;BME280;42691;47.234;27.494;2023-02-15T01:50:20;100782.94;;;8.94;100.00
56811;BME280;42691;47.234;27.494;2023-02-15T01:52:50;100777.84;;;8.88;100.00
56811;BME280;42691;47.234;27.494;2023-02-15T01:55:17;100783.91;;;8.88;100.00
56811;BME280;42691;47.234;27.494;2023-02-15T01:57:45;100786.53;;;8.87;100.00
56811;BME280;42691;47.234;27.494;2023-02-15T02:00:12;100770.31;;;8.77;100.00
56811;BME280;42691;47.234;27.494;2023-02-15T02:02:40;100786.72;;;8.79;100.00
56811;BME280;42691;47.234;27.494;2023-02-15T02:05:07;100783.13;;;8.85;100.00
56811;BME280;42691;47.234;27.494;2023-02-15T02:07:35;100790.09;;;8.83;100.00
56811;BME280;42691;47.234;27.494;2023-02-15T02:10:04;100785.03;;;8.76;100.00
56811;BME280;42691;47.234;27.494;2023-02-15T02:12:30;100778.06;;;8.78;100.00
56811;BME280;42691;47.234;27.494;2023-02-15T02:14:56;100775.56;;;8.75;100.00
56811;BME280;42691;47.234;27.494;2023-02-15T02:33:57;100776.72;;;8.62;100.00
56811;BME280;42691;47.234;27.494;2023-02-15T02:36:40;100783.72;;;8.59;100.00
56811;BME280;42691;47.234;27.494;2023-02-15T02:39:23;100787.03;;;8.65;100.00
56811;BME280;42691;47.234;27.494;2023-02-15T02:42:02;100790.59;;;8.61;100.00
56811;BME280;42691;47.234;27.494;2023-02-15T02:47:18;100794.72;;;8.70;100.00
56811;BME280;42691;47.234;27.494;2023-02-15T02:49:45;100806.66;;;8.77;100.00
56811;BME280;42691;47.234;27.494;2023-02-15T02:57:37;100804.16;;;8.72;100.00
56811;BME280;42691;47.234;27.494;2023-02-15T03:00:05;100795.66;;;8.66;100.00
56811;BME280;42691;47.234;27.494;2023-02-15T03:02:37;100794.75;;;8.68;100.00
56811;BME280;42691;47.234;27.494;2023-02-15T03:05:08;100804.91;;;8.77;100.00
56811;BME280;42691;47.234;27.494;2023-02-15T03:07:35;100798.16;;;8.70;100.00
56811;BME280;42691;47.234;27.494;2023-02-15T03:10:03;100799.94;;;8.68;100.00
56811;BME280;42691;47.234;27.494;2023-02-15T03:12:35;100806.00;;;8.67;100.00
56811;BME280;42691;47.234;27.494;2023-02-15T03:17:39;100803.28;;;8.73;100.00
56811;BME280;42691;47.234;27.494;2023-02-15T03:20:29;100801.53;;;8.74;100.00
56811;BME280;42691;47.234;27.494;2023-02-15T03:23:06;100811.09;;;8.72;100.00
56811;BME280;42691;47.234;27.494;2023-02-15T03:25:41;100810.25;;;8.71;100.00
56811;BME280;42691;47.234;27.494;2023-02-15T03:28:13;100812.78;;;8.73;100.00
56811;BME280;42691;47.234;27.494;2023-02-15T03:30:42;100810.25;;;8.71;100.00
56811;BME280;42691;47.234;27.494;2023-02-15T03:33:10;100808.44;;;8.75;100.00
56811;BME280;42691;47.234;27.494;2023-02-15T03:35:45;100802.38;;;8.74;100.00
56811;BME280;42691;47.234;27.494;2023-02-15T03:38:14;100810.22;;;8.73;100.00
56811;BME280;42691;47.234;27.494;2023-02-15T03:40:44;100800.00;;;8.65;100.00
56811;BME280;42691;47.234;27.494;2023-02-15T03:43:45;100804.38;;;8.63;100.00
56811;BME280;42691;47.234;27.494;2023-02-15T03:46:23;100807.72;;;8.68;100.00
56811;BME280;42691;47.234;27.494;2023-02-15T03:49:01;100818.13;;;8.67;100.00
56811;BME280;42691;47.234;27.494;2023-02-15T03:51:31;100804.44;;;8.60;100.00
56811;BME280;42691;47.234;27.494;2023-02-15T03:53:59;100813.22;;;8.53;100.00
56811;BME280;42691;47.234;27.494;2023-02-15T03:56:26;100817.38;;;8.62;100.00
56811;BME280;42691;47.234;27.494;2023-02-15T03:58:51;100818.28;;;8.61;100.00
56811;BME280;42691;47.234;27.494;2023-02-15T04:04:38;100823.47;;;8.61;100.00
56811;BME280;42691;47.234;27.494;2023-02-15T04:07:06;100820.03;;;8.59;100.00
56811;BME280;42691;47.234;27.494;2023-02-15T04:09:32;100821.78;;;8.58;100.00
56811;BME280;42691;47.234;27.494;2023-02-15T04:12:16;100816.66;;;8.55;100.00
56811;BME280;42691;47.234;27.494;2023-02-15T04:14:41;100820.13;;;8.56;100.00
56811;BME280;42691;47.234;27.494;2023-02-15T04:17:25;100822.66;;;8.57;100.00
56811;BME280;42691;47.234;27.494;2023-02-15T04:19:51;100822.72;;;8.56;100.00
56811;BME280;42691;47.234;27.494;2023-02-15T04:22:35;100818.41;;;8.53;100.00
56811;BME280;42691;47.234;27.494;2023-02-15T04:25:19;100820.19;;;8.51;100.00
56811;BME280;42691;47.234;27.494;2023-02-15T04:27:48;100818.50;;;8.49;100.00
56811;BME280;42691;47.234;27.494;2023-02-15T04:30:15;100823.72;;;8.47;100.00
56811;BME280;42691;47.234;27.494;2023-02-15T04:32:41;100827.06;;;8.52;100.00
56811;BME280;42691;47.234;27.494;2023-02-15T04:35:07;100797.22;;;8.33;100.00
56811;BME280;42691;47.234;27.494;2023-02-15T04:37:33;100821.97;;;8.49;100.00
56811;BME280;42691;47.234;27.494;2023-02-15T04:39:59;100831.34;;;8.55;100.00
56811;BME280;42691;47.234;27.494;2023-02-15T04:42:25;100833.13;;;8.53;100.00
56811;BME280;42691;47.234;27.494;2023-02-15T04:44:51;100834.03;;;8.50;100.00
56811;BME280;42691;47.234;27.494;2023-02-15T04:47:17;100831.53;;;8.45;100.00
56811;BME280;42691;47.234;27.494;2023-02-15T04:49:42;100835.88;;;8.45;100.00
56811;BME280;42691;47.234;27.494;2023-02-15T04:52:08;100847.09;;;8.45;100.00
56811;BME280;42691;47.234;27.494;2023-02-15T04:54:33;100850.59;;;8.44;100.00
56811;BME280;42691;47.234;27.494;2023-02-15T04:56:59;100846.28;;;8.43;100.00
56811;BME280;42691;47.234;27.494;2023-02-15T04:59:24;100837.72;;;8.40;100.00
56811;BME280;42691;47.234;27.494;2023-02-15T05:01:49;100853.16;;;8.46;100.00
56811;BME280;42691;47.234;27.494;2023-02-15T05:04:15;100849.78;;;8.41;100.00
56811;BME280;42691;47.234;27.494;2023-02-15T05:06:40;100862.72;;;8.42;100.00
56811;BME280;42691;47.234;27.494;2023-02-15T05:09:06;100865.34;;;8.41;100.00
56811;BME280;42691;47.234;27.494;2023-02-15T05:11:31;100866.06;;;8.48;100.00
56811;BME280;42691;47.234;27.494;2023-02-15T05:13:57;100866.16;;;8.44;100.00
56811;BME280;42691;47.234;27.494;2023-02-15T05:16:22;100873.09;;;8.42;100.00
56811;BME280;42691;47.234;27.494;2023-02-15T05:18:48;100875.66;;;8.44;100.00
56811;BME280;42691;47.234;27.494;2023-02-15T05:21:13;100876.63;;;8.40;100.00
56811;BME280;42691;47.234;27.494;2023-02-15T05:23:41;100876.72;;;8.35;100.00
56811;BME280;42691;47.234;27.494;2023-02-15T05:26:10;100883.50;;;8.41;100.00
56811;BME280;42691;47.234;27.494;2023-02-15T05:28:54;100884.31;;;8.43;100.00
56811;BME280;42691;47.234;27.494;2023-02-15T05:31:20;100899.91;;;8.41;100.00
56811;BME280;42691;47.234;27.494;2023-02-15T05:33:45;100884.44;;;8.37;100.00
56811;BME280;42691;47.234;27.494;2023-02-15T05:36:11;100905.00;;;8.46;100.00
56811;BME280;42691;47.234;27.494;2023-02-15T05:38:38;100901.53;;;8.47;100.00
56811;BME280;42691;47.234;27.494;2023-02-15T05:41:07;100909.38;;;8.44;100.00
56811;BME280;42691;47.234;27.494;2023-02-15T05:43:33;100877.69;;;8.28;100.00
56811;BME280;42691;47.234;27.494;2023-02-15T05:45:59;100904.94;;;8.49;100.00
56811;BME280;42691;47.234;27.494;2023-02-15T05:48:26;100916.97;;;8.53;100.00
56811;BME280;42691;47.234;27.494;2023-02-15T05:51:07;100909.00;;;8.64;100.00
56811;BME280;42691;47.234;27.494;2023-02-15T05:53:35;100913.19;;;8.69;100.00
56811;BME280;42691;47.234;27.494;2023-02-15T05:56:01;100918.13;;;8.82;100.00
56811;BME280;42691;47.234;27.494;2023-02-15T05:58:35;100920.50;;;8.92;100.00
56811;BME280;42691;47.234;27.494;2023-02-15T06:01:12;100910.81;;;9.00;100.00
56811;BME280;42691;47.234;27.494;2023-02-15T06:03:38;100906.44;;;9.02;100.00
56811;BME280;42691;47.234;27.494;2023-02-15T06:06:04;100908.72;;;9.16;100.00
56811;BME280;42691;47.234;27.494;2023-02-15T06:08:30;100905.06;;;9.23;100.00
56811;BME280;42691;47.234;27.494;2023-02-15T06:10:56;100907.81;;;9.17;100.00
56811;BME280;42691;47.234;27.494;2023-02-15T06:13:22;100902.09;;;9.03;100.00
56811;BME280;42691;47.234;27.494;2023-02-15T06:15:47;100908.03;;;9.08;100.00
56811;BME280;42691;47.234;27.494;2023-02-15T06:18:12;100904.69;;;9.03;100.00
56811;BME280;42691;47.234;27.494;2023-02-15T06:20:38;100907.22;;;9.06;100.00
56811;BME280;42691;47.234;27.494;2023-02-15T06:23:03;100908.91;;;9.07;100.00
56811;BME280;42691;47.234;27.494;2023-02-15T06:25:29;100911.56;;;9.05;100.00
56811;BME280;42691;47.234;27.494;2023-02-15T06:27:54;100915.03;;;9.04;100.00
56811;BME280;42691;47.234;27.494;2023-02-15T06:30:20;100908.84;;;9.10;100.00
56811;BME280;42691;47.234;27.494;2023-02-15T06:32:45;100910.47;;;9.14;100.00
56811;BME280;42691;47.234;27.494;2023-02-15T06:35:11;100899.44;;;9.06;100.00
56811;BME280;42691;47.234;27.494;2023-02-15T06:37:37;100905.41;;;9.09;100.00
56811;BME280;42691;47.234;27.494;2023-02-15T06:40:02;100912.19;;;9.15;100.00
56811;BME280;42691;47.234;27.494;2023-02-15T06:42:29;100896.91;;;9.03;100.00
56811;BME280;42691;47.234;27.494;2023-02-15T06:44:54;100920.94;;;9.11;100.00
56811;BME280;42691;47.234;27.494;2023-02-15T06:47:20;100914.19;;;9.04;100.00
56811;BME280;42691;47.234;27.494;2023-02-15T06:49:45;100915.88;;;9.05;100.00
56811;BME280;42691;47.234;27.494;2023-02-15T06:52:11;100910.97;;;8.91;100.00
56811;BME280;42691;47.234;27.494;2023-02-15T06:54:36;100907.44;;;8.97;100.00
56811;BME280;42691;47.234;27.494;2023-02-15T06:57:02;100908.09;;;9.05;100.00
56811;BME280;42691;47.234;27.494;2023-02-15T06:59:27;100906.22;;;9.12;100.00
56811;BME280;42691;47.234;27.494;2023-02-15T07:01:53;100908.78;;;9.13;100.00
56811;BME280;42691;47.234;27.494;2023-02-15T07:04:18;100908.63;;;9.19;100.00
56811;BME280;42691;47.234;27.494;2023-02-15T07:06:44;100909.22;;;9.32;100.00
56811;BME280;42691;47.234;27.494;2023-02-15T07:09:10;100911.78;;;9.33;100.00
56811;BME280;42691;47.234;27.494;2023-02-15T07:11:36;100914.28;;;9.38;100.00
56811;BME280;42691;47.234;27.494;2023-02-15T07:14:20;100916.75;;;9.43;100.00
56811;BME280;42691;47.234;27.494;2023-02-15T07:16:45;100911.00;;;9.28;100.00
56811;BME280;42691;47.234;27.494;2023-02-15T07:19:10;100914.38;;;9.33;100.00
56811;BME280;42691;47.234;27.494;2023-02-15T07:21:36;100906.59;;;9.33;100.00
56811;BME280;42691;47.234;27.494;2023-02-15T07:24:02;100919.94;;;9.54;100.00
56811;BME280;42691;47.234;27.494;2023-02-15T07:26:28;100906.19;;;9.50;100.00
56811;BME280;42691;47.234;27.494;2023-02-15T07:28:53;100917.44;;;9.51;100.00
56811;BME280;42691;47.234;27.494;2023-02-15T07:31:19;100881.19;;;9.09;100.00
56811;BME280;42691;47.234;27.494;2023-02-15T07:33:44;100913.53;;;9.33;100.00
56811;BME280;42691;47.234;27.494;2023-02-15T07:36:10;100913.19;;;9.47;100.00
56811;BME280;42691;47.234;27.494;2023-02-15T07:38:39;100914.66;;;9.57;100.00
56811;BME280;42691;47.234;27.494;2023-02-15T07:41:09;100929.25;;;9.62;100.00
56811;BME280;42691;47.234;27.494;2023-02-15T07:43:38;100911.63;;;9.39;100.00
56811;BME280;42691;47.234;27.494;2023-02-15T07:46:05;100917.06;;;9.30;100.00
56811;BME280;42691;47.234;27.494;2023-02-15T07:48:33;100920.53;;;9.29;100.00
56811;BME280;42691;47.234;27.494;2023-02-15T07:51:00;100896.75;;;9.09;100.00
56811;BME280;42691;47.234;27.494;2023-02-15T07:53:25;100907.16;;;9.09;100.00
56811;BME280;42691;47.234;27.494;2023-02-15T07:55:51;100903.66;;;9.10;100.00
56811;BME280;42691;47.234;27.494;2023-02-15T07:58:18;100910.28;;;8.83;100.00
56811;BME280;42691;47.234;27.494;2023-02-15T08:00:43;100903.94;;;8.98;100.00
56811;BME280;42691;47.234;27.494;2023-02-15T08:03:26;100906.47;;;9.01;100.00
56811;BME280;42691;47.234;27.494;2023-02-15T08:05:59;100919.38;;;9.04;100.00
56811;BME280;42691;47.234;27.494;2023-02-15T08:08:26;100921.34;;;8.93;100.00
56811;BME280;42691;47.234;27.494;2023-02-15T08:11:28;100919.69;;;8.89;100.00
56811;BME280;42691;47.234;27.494;2023-02-15T08:16:37;100926.91;;;9.15;100.00
56811;BME280;42691;47.234;27.494;2023-02-15T08:21:38;100928.59;;;9.17;100.00
56811;BME280;42691;47.234;27.494;2023-02-15T08:24:04;100942.25;;;9.25;100.00
56811;BME280;42691;47.234;27.494;2023-02-15T08:26:31;100944.78;;;9.28;100.00
56811;BME280;42691;47.234;27.494;2023-02-15T08:28:57;100935.94;;;9.37;100.00
56811;BME280;42691;47.234;27.494;2023-02-15T08:31:23;100934.16;;;9.39;100.00
56811;BME280;42691;47.234;27.494;2023-02-15T08:33:50;100936.22;;;9.23;100.00
56811;BME280;42691;47.234;27.494;2023-02-15T08:36:19;100943.03;;;9.29;100.00
56811;BME280;42691;47.234;27.494;2023-02-15T08:38:45;100940.34;;;9.33;100.00
56811;BME280;42691;47.234;27.494;2023-02-15T08:43:38;100932.28;;;9.46;100.00
56811;BME280;42691;47.234;27.494;2023-02-15T08:46:05;100918.69;;;9.34;100.00
56811;BME280;42691;47.234;27.494;2023-02-15T08:48:31;100938.78;;;9.25;100.00
56811;BME280;42691;47.234;27.494;2023-02-15T08:50:57;100946.38;;;9.35;100.00
56811;BME280;42691;47.234;27.494;2023-02-15T08:53:22;100937.59;;;9.39;100.00
56811;BME280;42691;47.234;27.494;2023-02-15T08:55:58;100940.72;;;9.54;100.00
56811;BME280;42691;47.234;27.494;2023-02-15T08:58:24;100933.59;;;9.62;100.00
56811;BME280;42691;47.234;27.494;2023-02-15T09:00:49;100931.97;;;9.58;100.00
56811;BME280;42691;47.234;27.494;2023-02-15T09:03:15;100925.00;;;9.60;100.00
56811;BME280;42691;47.234;27.494;2023-02-15T09:05:40;100931.69;;;9.70;100.00
56811;BME280;42691;47.234;27.494;2023-02-15T09:08:06;100930.56;;;9.45;100.00
56811;BME280;42691;47.234;27.494;2023-02-15T09:10:31;100930.16;;;9.61;100.00
56811;BME280;42691;47.234;27.494;2023-02-15T09:12:56;100923.97;;;9.65;100.00
56811;BME280;42691;47.234;27.494;2023-02-15T09:15:22;100934.25;;;9.71;100.00
56811;BME280;42691;47.234;27.494;2023-02-15T09:17:47;100932.34;;;9.78;100.00
56811;BME280;42691;47.234;27.494;2023-02-15T09:20:13;100925.31;;;9.82;100.00
56811;BME280;42691;47.234;27.494;2023-02-15T09:22:38;100920.50;;;10.00;100.00
56811;BME280;42691;47.234;27.494;2023-02-15T09:25:04;100925.25;;;9.85;100.00
56811;BME280;42691;47.234;27.494;2023-02-15T09:27:29;100926.09;;;9.85;100.00
56811;BME280;42691;47.234;27.494;2023-02-15T09:29:55;100932.38;;;9.77;100.00
56811;BME280;42691;47.234;27.494;2023-02-15T09:32:20;100915.69;;;9.85;100.00
56811;BME280;42691;47.234;27.494;2023-02-15T09:34:47;100913.69;;;9.96;100.00
56811;BME280;42691;47.234;27.494;2023-02-15T09:37:13;100921.44;;;9.98;100.00
56811;BME280;42691;47.234;27.494;2023-02-15T09:39:41;100916.00;;;10.07;100.00
56811;BME280;42691;47.234;27.494;2023-02-15T09:53:52;100912.13;;;9.89;100.00
56811;BME280;42691;47.234;27.494;2023-02-15T10:10:23;100899.75;;;10.31;100.00
56811;BME280;42691;47.234;27.494;2023-02-15T10:15:59;100896.06;;;10.40;100.00
56811;BME280;42691;47.234;27.494;2023-02-15T10:18:45;100909.00;;;10.43;100.00
56811;BME280;42691;47.234;27.494;2023-02-15T10:21:53;100887.38;;;10.41;100.00
56811;BME280;42691;47.234;27.494;2023-02-15T10:26:49;100889.97;;;10.41;100.00
56811;BME280;42691;47.234;27.494;2023-02-15T10:31:59;100895.06;;;10.46;100.00
56811;BME280;42691;47.234;27.494;2023-02-15T10:34:47;100893.13;;;10.52;100.00
56811;BME280;42691;47.234;27.494;2023-02-15T10:37:31;100888.09;;;10.14;100.00
56811;BME280;42691;47.234;27.494;2023-02-15T10:50:52;100883.88;;;10.42;100.00
56811;BME280;42691;47.234;27.494;2023-02-15T11:06:47;100878.00;;;10.94;100.00
56811;BME280;42691;47.234;27.494;2023-02-15T11:09:18;100873.78;;;10.90;100.00
56811;BME280;42691;47.234;27.494;2023-02-15T11:11:49;100870.41;;;10.87;100.00
56811;BME280;42691;47.234;27.494;2023-02-15T11:16:49;100874.25;;;11.03;100.00
56811;BME280;42691;47.234;27.494;2023-02-15T11:19:23;100873.50;;;11.00;99.71
56811;BME280;42691;47.234;27.494;2023-02-15T11:21:57;100873.69;;;10.93;99.76
56811;BME280;42691;47.234;27.494;2023-02-15T11:24:26;100865.53;;;11.04;100.00
56811;BME280;42691;47.234;27.494;2023-02-15T11:30:05;100856.66;;;10.83;99.61
56811;BME280;42691;47.234;27.494;2023-02-15T11:32:39;100862.31;;;10.96;100.00
56811;BME280;42691;47.234;27.494;2023-02-15T11:40:28;100856.66;;;10.83;97.45
56811;BME280;42691;47.234;27.494;2023-02-15T11:42:58;100840.28;;;10.80;98.95
56811;BME280;42691;47.234;27.494;2023-02-15T11:45:32;100861.31;;;11.00;99.65
56811;BME280;42691;47.234;27.494;2023-02-15T11:48:00;100845.53;;;10.77;97.33
56811;BME280;42691;47.234;27.494;2023-02-15T11:50:29;100844.88;;;10.70;97.04
56811;BME280;42691;47.234;27.494;2023-02-15T11:53:04;100855.31;;;10.98;100.00
56811;BME280;42691;47.234;27.494;2023-02-15T11:55:31;100852.72;;;10.98;100.00
56811;BME280;42691;47.234;27.494;2023-02-15T11:58:04;100830.13;;;10.99;97.85
56811;BME280;42691;47.234;27.494;2023-02-15T12:00:40;100822.28;;;11.00;97.80
56811;BME280;42691;47.234;27.494;2023-02-15T12:05:42;100838.63;;;11.32;100.00
56811;BME280;42691;47.234;27.494;2023-02-15T12:08:15;100838.97;;;11.21;98.68
56811;BME280;42691;47.234;27.494;2023-02-15T12:11:00;100838.09;;;10.94;95.27
56811;BME280;42691;47.234;27.494;2023-02-15T12:13:27;100835.28;;;11.00;95.90
56811;BME280;42691;47.234;27.494;2023-02-15T12:15:56;100842.16;;;11.03;96.53
56811;BME280;42691;47.234;27.494;2023-02-15T12:18:36;100838.44;;;11.10;96.46
56811;BME280;42691;47.234;27.494;2023-02-15T12:21:05;100835.31;;;11.26;95.55
56811;BME280;42691;47.234;27.494;2023-02-15T12:23:32;100842.97;;;11.31;91.34
56811;BME280;42691;47.234;27.494;2023-02-15T12:25:59;100851.50;;;11.36;91.42
56811;BME280;42691;47.234;27.494;2023-02-15T12:28:34;100831.47;;;11.10;91.73
56811;BME280;42691;47.234;27.494;2023-02-15T12:31:04;100840.28;;;11.34;95.63
56811;BME280;42691;47.234;27.494;2023-02-15T12:33:36;100832.34;;;11.37;92.03
56811;BME280;42691;47.234;27.494;2023-02-15T12:36:23;100824.31;;;11.43;94.60
56811;BME280;42691;47.234;27.494;2023-02-15T12:41:46;100825.09;;;11.20;86.14
56811;BME280;42691;47.234;27.494;2023-02-15T12:44:31;100819.78;;;11.23;87.97
56811;BME280;42691;47.234;27.494;2023-02-15T12:47:05;100824.19;;;11.21;88.26
56811;BME280;42691;47.234;27.494;2023-02-15T12:49:37;100830.41;;;11.17;84.10
56811;BME280;42691;47.234;27.494;2023-02-15T12:52:22;100815.75;;;10.87;83.71
56811;BME280;42691;47.234;27.494;2023-02-15T12:54:49;100821.97;;;11.09;90.36
56811;BME280;42691;47.234;27.494;2023-02-15T12:57:27;100816.59;;;11.15;84.92
56811;BME280;42691;47.234;27.494;2023-02-15T13:02:34;100831.13;;;11.22;84.06
56811;BME280;42691;47.234;27.494;2023-02-15T13:05:22;100827.59;;;11.23;81.06
56811;BME280;42691;47.234;27.494;2023-02-15T13:07:54;100812.50;;;11.07;81.08
56811;BME280;42691;47.234;27.494;2023-02-15T13:10:28;100821.97;;;11.09;84.38
56811;BME280;42691;47.234;27.494;2023-02-15T13:12:56;100814.59;;;11.23;86.07
56811;BME280;42691;47.234;27.494;2023-02-15T13:15:34;100816.91;;;11.05;79.04
56811;BME280;42691;47.234;27.494;2023-02-15T13:18:01;100804.81;;;11.30;90.40
56811;BME280;42691;47.234;27.494;2023-02-15T13:20:28;100812.97;;;11.19;80.01
56811;BME280;42691;47.234;27.494;2023-02-15T13:23:00;100809.66;;;11.14;79.11
56811;BME280;42691;47.234;27.494;2023-02-15T13:25:29;100811.19;;;11.21;76.85
56811;BME280;42691;47.234;27.494;2023-02-15T13:28:01;100799.16;;;11.17;76.22
56811;BME280;42691;47.234;27.494;2023-02-15T13:30:43;100804.75;;;11.32;77.93
56811;BME280;42691;47.234;27.494;2023-02-15T13:33:35;100804.53;;;11.38;77.09
56811;BME280;42691;47.234;27.494;2023-02-15T13:39:20;100820.38;;;11.32;76.33
56811;BME280;42691;47.234;27.494;2023-02-15T13:47:46;100820.97;;;11.40;74.86
56811;BME280;42691;47.234;27.494;2023-02-15T13:55:53;100807.34;;;11.32;69.48
56811;BME280;42691;47.234;27.494;2023-02-15T14:06:27;100816.06;;;11.31;73.04
56811;BME280;42691;47.234;27.494;2023-02-15T14:19:45;100815.75;;;11.40;70.71
56811;BME280;42691;47.234;27.494;2023-02-15T14:22:35;100813.63;;;11.51;72.55
56811;BME280;42691;47.234;27.494;2023-02-15T14:30:57;100814.50;;;11.51;77.54
56811;BME280;42691;47.234;27.494;2023-02-15T14:33:32;100817.38;;;11.44;69.16
56811;BME280;42691;47.234;27.494;2023-02-15T14:36:00;100814.06;;;11.39;68.48
56811;BME280;42691;47.234;27.494;2023-02-15T14:41:23;100830.44;;;11.42;68.56
56811;BME280;42691;47.234;27.494;2023-02-15T14:44:11;100833.50;;;11.55;67.71
56811;BME280;42691;47.234;27.494;2023-02-15T14:49:33;100827.50;;;11.53;66.91
56811;BME280;42691;47.234;27.494;2023-02-15T14:52:05;100845.53;;;11.59;67.04
56811;BME280;42691;47.234;27.494;2023-02-15T15:04:33;100853.50;;;11.54;70.13
56811;BME280;42691;47.234;27.494;2023-02-15T15:09:39;100849.47;;;11.44;72.99
56811;BME280;42691;47.234;27.494;2023-02-15T15:14:46;100841.72;;;11.43;75.13
56811;BME280;42691;47.234;27.494;2023-02-15T15:22:40;100861.66;;;11.44;74.95
56811;BME280;42691;47.234;27.494;2023-02-15T15:35:44;100864.47;;;11.38;78.23
56811;BME280;42691;47.234;27.494;2023-02-15T15:49:18;100870.97;;;11.24;78.51
56811;BME280;42691;47.234;27.494;2023-02-15T15:51:45;100883.41;;;11.16;78.72
56811;BME280;42691;47.234;27.494;2023-02-15T15:54:19;100880.88;;;11.13;80.22
56811;BME280;42691;47.234;27.494;2023-02-15T15:56:49;100882.56;;;11.14;81.50
56811;BME280;42691;47.234;27.494;2023-02-15T15:59:22;100869.78;;;11.07;81.61
56811;BME280;42691;47.234;27.494;2023-02-15T16:01:49;100874.25;;;11.03;82.47
56811;BME280;42691;47.234;27.494;2023-02-15T16:04:30;100886.97;;;11.12;83.19
56811;BME280;42691;47.234;27.494;2023-02-15T16:06:57;100887.94;;;11.10;83.86
56811;BME280;42691;47.234;27.494;2023-02-15T16:09:25;100883.72;;;11.06;83.08
56811;BME280;42691;47.234;27.494;2023-02-15T16:11:53;100884.84;;;10.97;83.23
56811;BME280;42691;47.234;27.494;2023-02-15T16:14:28;100891.97;;;10.92;83.17